createdAt,value
2023-04-27T00:00:00.033Z,7.65
2023-04-27T00:02:34.507Z,7.76
2023-04-27T00:05:11.177Z,7.67
2023-04-27T00:07:47.243Z,7.57
2023-04-27T00:10:22.038Z,7.44
2023-04-27T00:12:56.277Z,7.27
2023-04-27T00:15:31.361Z,7.32
2023-04-27T00:18:05.784Z,7.19
2023-04-27T00:20:41.107Z,7.20
2023-04-27T00:23:16.912Z,7.32
2023-04-27T00:25:51.463Z,7.35
2023-04-27T00:28:25.802Z,7.49
2023-04-27T00:31:00.481Z,7.36
2023-04-27T00:33:35.084Z,7.33
2023-04-27T00:36:10.506Z,7.32
2023-04-27T00:38:46.353Z,7.36
2023-04-27T00:41:21.007Z,7.44
2023-04-27T00:43:55.688Z,7.20
2023-04-27T00:46:31.056Z,7.10
2023-04-27T00:49:06.088Z,6.76
2023-04-27T00:51:40.969Z,6.65
2023-04-27T00:54:17.259Z,6.30
2023-04-27T00:56:52.396Z,6.33
2023-04-27T00:59:26.985Z,6.30
2023-04-27T01:02:02.361Z,6.31
2023-04-27T01:04:37.143Z,6.29
2023-04-27T01:07:11.932Z,6.28
2023-04-27T01:09:48.309Z,6.12
2023-04-27T01:12:23.157Z,6.31
2023-04-27T01:14:57.486Z,6.08
2023-04-27T01:17:32.244Z,6.17
2023-04-27T01:20:10.920Z,6.00
2023-04-27T01:22:46.257Z,6.22
2023-04-27T01:25:22.190Z,6.34
2023-04-27T01:27:56.988Z,6.28
2023-04-27T01:30:31.397Z,6.47
2023-04-27T01:33:06.516Z,6.35
2023-04-27T01:35:40.922Z,6.39
2023-04-27T01:38:15.626Z,6.49
2023-04-27T01:40:52.771Z,6.62
2023-04-27T01:43:27.941Z,6.64
2023-04-27T01:46:07.665Z,6.61
2023-04-27T01:48:42.848Z,6.41
2023-04-27T01:51:18.589Z,6.26
2023-04-27T01:53:53.845Z,6.30
2023-04-27T01:56:29.568Z,6.58
2023-04-27T01:59:04.314Z,6.84
2023-04-27T02:01:38.737Z,6.84
2023-04-27T02:04:13.928Z,6.81
2023-04-27T02:06:48.472Z,6.75
2023-04-27T02:09:23.226Z,6.66
2023-04-27T02:11:59.309Z,6.86
2023-04-27T02:14:34.524Z,6.83
2023-04-27T02:17:09.177Z,6.67
2023-04-27T02:19:43.640Z,6.55
2023-04-27T02:22:18.656Z,6.58
2023-04-27T02:24:53.019Z,6.67
2023-04-27T02:27:29.562Z,6.65
2023-04-27T02:30:06.979Z,6.66
2023-04-27T02:32:42.522Z,6.77
2023-04-27T02:35:16.959Z,6.98
2023-04-27T02:37:51.520Z,6.92
2023-04-27T02:40:26.029Z,6.94
2023-04-27T02:43:02.018Z,6.89
2023-04-27T02:45:39.326Z,6.84
2023-04-27T02:48:13.990Z,6.98
2023-04-27T02:50:48.330Z,7.03
2023-04-27T02:53:22.910Z,6.82
2023-04-27T02:55:58.592Z,6.51
2023-04-27T02:58:34.805Z,6.16
2023-04-27T03:01:09.859Z,6.07
2023-04-27T03:03:47.767Z,5.96
2023-04-27T03:06:22.236Z,5.98
2023-04-27T03:08:56.990Z,6.01
2023-04-27T03:11:31.495Z,6.06
2023-04-27T03:14:07.770Z,6.01
2023-04-27T03:16:42.159Z,5.97
2023-04-27T03:19:17.061Z,6.06
2023-04-27T03:21:51.593Z,6.08
2023-04-27T03:24:26.684Z,6.21
2023-04-27T03:27:02.367Z,6.10
2023-04-27T03:29:38.354Z,6.15
2023-04-27T03:32:12.743Z,6.17
2023-04-27T03:34:47.732Z,6.05
2023-04-27T03:37:22.086Z,6.09
2023-04-27T03:39:56.950Z,5.98
2023-04-27T03:42:31.386Z,5.98
2023-04-27T03:45:09.005Z,6.04
2023-04-27T03:47:43.535Z,6.14
2023-04-27T03:50:18.496Z,5.95
2023-04-27T03:52:52.946Z,6.02
2023-04-27T03:55:27.499Z,6.00
2023-04-27T03:58:02.005Z,5.73
2023-04-27T04:00:38.707Z,5.89
2023-04-27T04:03:13.856Z,6.02
2023-04-27T04:05:48.376Z,6.02
2023-04-27T04:08:23.112Z,5.97
2023-04-27T04:10:58.272Z,6.07
2023-04-27T04:13:33.081Z,6.08
2023-04-27T04:16:10.751Z,6.06
2023-04-27T04:18:46.688Z,6.24
2023-04-27T04:21:21.180Z,6.26
2023-04-27T04:23:56.479Z,6.40
2023-04-27T04:26:30.931Z,6.61
2023-04-27T04:29:06.235Z,6.66
2023-04-27T04:31:42.573Z,6.81
2023-04-27T04:34:17.804Z,6.86
2023-04-27T04:36:52.561Z,10.02
2023-04-27T04:39:31.584Z,9.22
2023-04-27T04:42:05.931Z,8.63
2023-04-27T04:44:40.857Z,8.45
2023-04-27T04:47:16.837Z,8.27
2023-04-27T04:49:53.198Z,7.65
2023-04-27T04:52:27.824Z,7.63
2023-04-27T04:55:02.486Z,7.17
2023-04-27T04:57:37.433Z,9.18
2023-04-27T05:00:14.323Z,9.61
2023-04-27T05:02:50.352Z,7.82
2023-04-27T05:05:26.862Z,9.76
2023-04-27T05:08:01.279Z,10.00
2023-04-27T05:10:36.086Z,8.87
2023-04-27T05:13:10.591Z,8.22
2023-04-27T05:15:45.296Z,7.63
2023-04-27T05:18:22.504Z,7.24
2023-04-27T05:20:57.535Z,7.11
2023-04-27T05:23:31.807Z,7.13
2023-04-27T05:26:13.115Z,7.20
2023-04-27T05:28:49.412Z,10.06
2023-04-27T05:31:24.388Z,11.24
2023-04-27T05:34:00.246Z,10.32
2023-04-27T05:36:34.930Z,9.52
2023-04-27T05:39:09.439Z,9.03
2023-04-27T05:41:44.276Z,8.51
2023-04-27T05:44:18.556Z,8.29
2023-04-27T05:46:53.260Z,8.39
2023-04-27T05:49:28.908Z,8.64
2023-04-27T05:52:04.411Z,8.60
2023-04-27T05:54:38.767Z,8.96
2023-04-27T05:57:13.457Z,8.55
2023-04-27T05:59:47.878Z,8.95
2023-04-27T06:02:56.196Z,9.79
2023-04-27T06:05:31.428Z,9.79
2023-04-27T06:08:06.286Z,10.28
2023-04-27T06:10:41.014Z,12.62
2023-04-27T06:13:16.297Z,11.93
2023-04-27T06:15:51.068Z,11.02
2023-04-27T06:18:26.975Z,10.81
2023-04-27T06:21:02.513Z,10.44
2023-04-27T06:23:36.920Z,10.31
2023-04-27T06:26:11.704Z,10.01
2023-04-27T06:28:46.900Z,10.07
2023-04-27T06:31:21.895Z,9.96
2023-04-27T06:33:57.927Z,9.98
2023-04-27T06:36:32.535Z,10.00
2023-04-27T06:39:06.870Z,10.25
2023-04-27T06:41:41.493Z,10.23
2023-04-27T06:44:20.399Z,10.50
2023-04-27T06:46:55.075Z,10.44
2023-04-27T06:49:31.133Z,10.65
2023-04-27T06:52:07.357Z,10.48
2023-04-27T06:54:42.042Z,10.51
2023-04-27T06:57:17.131Z,10.57
2023-04-27T06:59:52.803Z,10.88
2023-04-27T07:02:27.668Z,11.02
2023-04-27T07:05:03.551Z,11.29
2023-04-27T07:07:38.294Z,11.20
2023-04-27T07:10:12.962Z,11.34
2023-04-27T07:12:47.961Z,11.57
2023-04-27T07:15:23.518Z,11.72
2023-04-27T07:17:58.209Z,11.36
2023-04-27T07:20:34.069Z,11.74
2023-04-27T07:23:08.717Z,11.93
2023-04-27T07:25:43.684Z,11.71
2023-04-27T07:28:18.605Z,11.81
2023-04-27T07:30:53.062Z,14.05
2023-04-27T07:33:28.122Z,14.40
2023-04-27T07:36:04.720Z,13.63
2023-04-27T07:38:39.704Z,13.18
2023-04-27T07:41:14.545Z,12.70
2023-04-27T07:43:50.040Z,12.29
2023-04-27T07:46:24.606Z,12.64
2023-04-27T07:49:00.665Z,12.70
2023-04-27T07:51:36.829Z,12.59
2023-04-27T07:54:11.555Z,12.60
2023-04-27T07:56:46.232Z,12.46
2023-04-27T07:59:21.004Z,12.21
2023-04-27T08:02:04.070Z,12.45
2023-04-27T08:04:46.983Z,12.82
2023-04-27T08:07:23.304Z,12.57
2023-04-27T08:09:58.041Z,12.80
2023-04-27T08:12:33.692Z,13.19
2023-04-27T08:15:09.950Z,13.48
2023-04-27T08:17:44.421Z,13.52
2023-04-27T08:20:19.516Z,13.28
2023-04-27T08:22:55.304Z,13.72
2023-04-27T08:25:30.010Z,13.69
2023-04-27T08:28:04.290Z,13.58
2023-04-27T08:30:38.916Z,13.65
2023-04-27T08:33:13.518Z,13.75
2023-04-27T08:35:48.196Z,13.46
2023-04-27T08:38:25.582Z,13.69
2023-04-27T08:41:07.601Z,14.04
2023-04-27T08:43:53.990Z,14.27
2023-04-27T08:46:28.804Z,14.29
2023-04-27T08:49:03.163Z,14.27
2023-04-27T08:51:38.097Z,13.95
2023-04-27T08:54:13.790Z,14.15
2023-04-27T08:56:48.563Z,14.26
2023-04-27T08:59:23.494Z,14.11
2023-04-27T09:01:58.541Z,14.33
2023-04-27T09:04:39.789Z,14.82
2023-04-27T09:07:15.608Z,14.56
2023-04-27T09:09:53.147Z,14.64
2023-04-27T09:12:27.836Z,15.00
2023-04-27T09:15:03.800Z,14.91
2023-04-27T09:17:39.042Z,15.52
2023-04-27T09:20:14.050Z,14.99
2023-04-27T09:22:50.107Z,14.13
2023-04-27T09:25:28.002Z,14.26
2023-04-27T14:03:36.488Z,19.99
2023-04-27T14:06:11.672Z,19.99
2023-04-27T14:08:46.128Z,18.75
2023-04-27T14:11:21.332Z,18.49
2023-04-27T14:13:55.662Z,17.82
2023-04-27T14:16:30.783Z,18.54
2023-04-27T14:19:06.614Z,19.09
2023-04-27T14:21:41.265Z,18.69
2023-04-27T14:24:15.542Z,17.91
2023-04-27T14:26:51.320Z,18.01
2023-04-27T14:29:25.916Z,18.24
2023-04-27T14:32:15.125Z,18.73
2023-04-27T21:54:31.056Z,10.60
2023-04-27T21:57:06.277Z,10.60
2023-04-27T21:59:40.772Z,9.35
2023-04-27T22:03:16.391Z,9.33
2023-04-27T22:05:52.906Z,9.33
2023-04-27T22:08:27.469Z,8.82
2023-04-27T22:11:02.619Z,8.70
2023-04-27T22:13:37.180Z,10.04
2023-04-27T22:16:13.114Z,11.31
2023-04-27T22:18:49.735Z,9.51
2023-04-27T22:21:24.548Z,8.76
2023-04-27T22:23:59.025Z,8.32
2023-04-27T22:26:33.625Z,8.31
2023-04-27T22:29:08.359Z,8.12
2023-04-27T22:31:43.424Z,8.12
2023-04-27T22:34:19.266Z,8.05
2023-04-27T22:36:54.417Z,8.14
2023-04-27T22:39:28.983Z,8.39
2023-04-27T22:42:03.923Z,8.20
2023-04-27T22:44:38.260Z,7.98
2023-04-27T22:47:12.929Z,7.98
2023-04-27T22:49:49.742Z,8.17
2023-04-27T22:52:25.104Z,8.16
2023-04-27T22:54:59.396Z,7.97
2023-04-27T22:57:34.127Z,7.87
2023-04-27T23:00:11.637Z,8.27
2023-04-27T23:02:47.603Z,8.13
2023-04-27T23:05:23.911Z,8.36
2023-04-27T23:07:58.612Z,8.36
2023-04-27T23:10:34.915Z,8.18
2023-04-27T23:13:11.498Z,8.19
2023-04-27T23:15:45.807Z,8.15
2023-04-27T23:18:20.556Z,8.21
2023-04-27T23:20:56.597Z,8.34
2023-04-27T23:23:31.188Z,8.47
2023-04-27T23:26:14.167Z,8.21
2023-04-27T23:28:49.845Z,8.25
2023-04-27T23:31:24.652Z,8.07
2023-04-27T23:33:59.594Z,8.04
2023-04-27T23:36:35.381Z,8.05
2023-04-27T23:39:10.211Z,7.72
2023-04-27T23:41:44.716Z,7.69
2023-04-27T23:44:19.510Z,7.86
2023-04-27T23:46:54.290Z,7.97
2023-04-27T23:49:29.028Z,7.99
2023-04-27T23:52:05.220Z,8.14
2023-04-27T23:54:40.193Z,8.05
2023-04-27T23:57:16.094Z,7.79
2023-04-27T23:59:50.724Z,7.68
